Time;durP1;ratioP1;P1;durP2;ratioP2;P2;SDS_P1;SDS_P2;PMS_P1;PMS_P2;Temp;Humidity;BMP_temperature;BMP_pressure;BME280_temperature;BME280_humidity;BME280_pressure;Samples;Min_cycle;Max_cycle;Signal;HPM_P1;HPM_P2
2024/03/03 00:01:40;;;;;;;16.95;8.77;;;;;;;8.80;67.95;99022.00;10333541;28;20053;-80
2024/03/03 00:06:44;;;;;;;11.85;8.55;;;;;;;8.75;68.16;99018.91;10332715;28;20050;-79
2024/03/03 00:11:47;;;;;;;16.90;9.88;;;;;;;8.68;68.44;99019.63;10330114;28;20053;-79
2024/03/03 00:16:51;;;;;;;16.23;10.00;;;;;;;8.67;68.39;99017.97;10331670;28;20046;-79
2024/03/03 00:21:55;;;;;;;15.02;9.75;;;;;;;8.59;68.06;99007.97;10328556;28;20045;-78
2024/03/03 00:26:58;;;;;;;14.65;9.68;;;;;;;8.61;68.34;99011.31;10328996;28;20149;-78
2024/03/03 00:32:01;;;;;;;16.95;8.88;;;;;;;8.64;68.05;99008.38;10328721;28;20060;-78
2024/03/03 00:37:05;;;;;;;14.90;8.77;;;;;;;8.50;68.30;99023.06;10320343;28;20176;-79
2024/03/03 00:42:09;;;;;;;14.27;9.00;;;;;;;8.64;67.66;99016.41;10330076;28;20053;-79
2024/03/03 00:47:12;;;;;;;15.15;9.90;;;;;;;8.80;66.97;99018.44;10331797;28;20512;-79
2024/03/03 00:52:16;;;;;;;13.60;8.35;;;;;;;8.84;66.71;99022.53;10330839;28;20046;-79
2024/03/03 00:57:19;;;;;;;12.82;8.27;;;;;;;8.80;66.63;99021.13;10336107;28;20053;-79
2024/03/03 01:02:23;;;;;;;14.02;9.30;;;;;;;8.72;66.78;99027.22;10334803;28;20045;-78
2024/03/03 01:07:28;;;;;;;13.20;8.43;;;;;;;8.72;66.89;99029.03;10338052;28;20045;-79
2024/03/03 01:12:31;;;;;;;13.98;9.02;;;;;;;8.66;67.21;99027.78;10340593;28;20050;-79
2024/03/03 01:17:34;;;;;;;14.32;8.50;;;;;;;8.59;67.26;99018.66;10336497;28;20053;-79
2024/03/03 01:22:39;;;;;;;13.77;8.85;;;;;;;8.49;67.67;99010.66;10335475;28;20083;-79
2024/03/03 01:27:42;;;;;;;13.48;9.35;;;;;;;8.37;68.21;98993.06;10326497;28;20049;-79
2024/03/03 01:32:45;;;;;;;12.63;8.60;;;;;;;8.25;69.05;98996.88;10337189;28;20077;-79
2024/03/03 01:37:49;;;;;;;12.50;8.85;;;;;;;8.17;69.41;98995.78;10334072;28;20046;-79
2024/03/03 01:42:55;;;;;;;16.73;10.00;;;;;;;8.14;69.41;98988.00;10335444;28;20050;-79
2024/03/03 01:47:59;;;;;;;13.25;9.30;;;;;;;8.11;69.80;98984.78;10335254;28;20085;-79
2024/03/03 01:53:04;;;;;;;11.13;7.82;;;;;;;8.11;69.64;98988.28;10337168;28;20661;-79
2024/03/03 01:58:08;;;;;;;13.50;8.80;;;;;;;8.10;69.66;98997.31;10334126;28;20045;-79
2024/03/03 02:03:11;;;;;;;13.23;8.90;;;;;;;8.14;69.69;98992.50;10336581;28;20058;-79
2024/03/03 02:08:16;;;;;;;11.60;9.00;;;;;;;8.11;69.72;98987.44;10330300;28;20053;-78
2024/03/03 02:13:19;;;;;;;13.55;8.57;;;;;;;7.94;69.97;98979.16;10333893;28;20057;-79
2024/03/03 02:18:22;;;;;;;12.02;8.52;;;;;;;7.83;70.30;98982.00;10314919;28;20045;-79
2024/03/03 02:23:27;;;;;;;13.38;8.63;;;;;;;7.73;70.82;98970.44;10333973;28;20081;-79
2024/03/03 02:28:31;;;;;;;12.27;8.65;;;;;;;7.68;71.25;98972.72;10333137;28;20983;-79
2024/03/03 02:33:34;;;;;;;13.07;8.90;;;;;;;7.66;71.25;98969.34;10327344;28;20417;-79
2024/03/03 02:38:38;;;;;;;15.30;8.75;;;;;;;7.48;71.20;98969.16;10332607;28;20055;-79
2024/03/03 02:43:41;;;;;;;12.48;8.13;;;;;;;7.38;72.91;98965.66;10324467;28;20097;-79
2024/03/03 02:48:44;;;;;;;15.20;9.75;;;;;;;7.39;73.45;98983.38;10325626;28;20050;-79
2024/03/03 02:53:49;;;;;;;14.63;9.40;;;;;;;7.37;73.76;98972.81;10339238;28;20056;-79
2024/03/03 02:58:52;;;;;;;15.13;9.43;;;;;;;7.33;74.34;98978.59;10347661;28;20129;-79
2024/03/03 03:03:55;;;;;;;15.40;9.77;;;;;;;7.43;74.62;98979.41;10336895;28;20056;-78
2024/03/03 03:08:59;;;;;;;20.20;10.55;;;;;;;7.46;74.56;98971.13;10330075;28;20397;-80
2024/03/03 03:14:03;;;;;;;15.50;9.63;;;;;;;7.45;74.46;98967.59;10319726;28;20050;-80
2024/03/03 03:19:06;;;;;;;14.32;10.18;;;;;;;7.36;75.40;98973.78;10332495;28;20050;-79
2024/03/03 03:24:11;;;;;;;16.98;10.63;;;;;;;7.33;76.45;98967.91;10327027;28;20042;-80
2024/03/03 03:29:14;;;;;;;18.75;11.48;;;;;;;7.38;76.71;98968.31;10333727;28;20057;-79
2024/03/03 03:34:17;;;;;;;18.98;11.50;;;;;;;7.40;77.09;98966.34;10333299;28;20236;-79
2024/03/03 03:39:21;;;;;;;18.42;10.82;;;;;;;7.39;77.04;98978.84;10332017;28;20042;-79
2024/03/03 03:44:24;;;;;;;21.98;11.00;;;;;;;7.51;76.37;98966.22;10319260;28;20057;-79
2024/03/03 03:49:28;;;;;;;19.38;10.80;;;;;;;7.54;76.17;98963.25;10332176;28;20046;-79
2024/03/03 03:54:33;;;;;;;17.75;10.82;;;;;;;7.53;75.83;98963.41;10331627;28;20054;-80
2024/03/03 03:59:36;;;;;;;18.33;10.65;;;;;;;7.48;75.89;98969.16;10332610;28;20528;-80
2024/03/03 04:04:39;;;;;;;14.00;9.57;;;;;;;7.47;75.95;98962.16;10318222;28;20597;-80
2024/03/03 04:09:43;;;;;;;16.08;10.10;;;;;;;7.50;75.91;98969.88;10323397;28;20049;-79
2024/03/03 04:14:46;;;;;;;15.48;9.88;;;;;;;7.47;75.50;98962.16;10330861;28;21602;-79
2024/03/03 04:19:49;;;;;;;16.40;10.07;;;;;;;7.41;75.55;98968.88;10325720;28;20232;-79
2024/03/03 04:24:53;;;;;;;16.35;9.32;;;;;;;7.27;76.03;98951.44;10331915;28;20053;-79
2024/03/03 04:29:56;;;;;;;14.40;9.60;;;;;;;7.28;76.39;98958.44;10329136;28;20048;-79
2024/03/03 04:35:00;;;;;;;17.60;10.90;;;;;;;7.36;76.13;98960.44;10323536;28;20049;-80
2024/03/03 04:40:06;;;;;;;16.90;11.15;;;;;;;7.39;75.71;98962.00;10338467;28;20065;-79
2024/03/03 04:45:10;;;;;;;18.20;9.70;;;;;;;7.33;75.77;98955.38;10336790;28;20324;-80
2024/03/03 04:50:14;;;;;;;15.68;9.80;;;;;;;7.25;76.27;98956.06;10341100;28;20037;-80
2024/03/03 04:55:19;;;;;;;18.05;10.18;;;;;;;7.13;76.25;98946.50;10357846;28;20060;-79
2024/03/03 05:00:22;;;;;;;12.68;8.90;;;;;;;6.90;77.84;98958.38;10335391;28;20117;-79
2024/03/03 05:05:24;;;;;;;17.02;10.13;;;;;;;6.78;79.43;98971.78;10339247;28;21250;-79
2024/03/03 05:10:29;;;;;;;17.67;10.13;;;;;;;6.45;80.97;98977.38;10335210;28;20045;-78
2024/03/03 05:15:32;;;;;;;17.05;10.60;;;;;;;6.58;80.21;98980.66;10341154;28;20049;-78
2024/03/03 05:20:35;;;;;;;17.70;10.40;;;;;;;6.63;80.19;98975.78;10330957;28;20520;-78
2024/03/03 05:25:40;;;;;;;18.73;11.15;;;;;;;6.55;79.91;98979.09;10337752;28;20049;-78
2024/03/03 05:30:43;;;;;;;17.88;9.98;;;;;;;6.55;80.12;98972.94;10336260;28;20053;-78
2024/03/03 05:35:46;;;;;;;18.40;10.98;;;;;;;6.47;80.01;98975.41;10328436;28;20155;-78
2024/03/03 05:40:50;;;;;;;18.98;10.32;;;;;;;6.45;80.49;98975.56;10331595;28;20068;-80
2024/03/03 05:45:54;;;;;;;17.00;10.32;;;;;;;6.45;80.44;98974.72;10345119;28;20049;-79
2024/03/03 05:50:57;;;;;;;15.90;10.60;;;;;;;6.40;80.53;98978.63;10344825;28;20049;-79
2024/03/03 05:56:02;;;;;;;22.30;11.73;;;;;;;6.36;80.67;98971.88;10347097;28;20057;-80
2024/03/03 06:01:05;;;;;;;20.80;11.70;;;;;;;6.37;80.96;98983.38;10345791;28;20051;-78
2024/03/03 06:06:09;;;;;;;18.55;11.23;;;;;;;6.32;81.14;98980.25;10343869;28;20045;-78
2024/03/03 06:11:17;;;;;;;18.88;11.60;;;;;;;6.25;81.31;98987.91;10344242;28;20049;-79
2024/03/03 06:16:20;;;;;;;20.45;11.82;;;;;;;6.26;80.97;98986.13;10332619;28;20508;-78
2024/03/03 06:21:23;;;;;;;22.85;12.45;;;;;;;6.20;81.30;99005.28;10340418;28;20060;-78
2024/03/03 06:26:30;;;;;;;22.98;11.93;;;;;;;6.31;81.72;99018.56;10336531;28;20056;-78
2024/03/03 06:31:33;;;;;;;18.98;11.48;;;;;;;6.26;82.94;99021.63;10328166;28;20422;-79
2024/03/03 06:36:37;;;;;;;17.27;11.70;;;;;;;6.53;82.79;99022.94;10339588;28;20483;-78
2024/03/03 06:41:43;;;;;;;17.83;11.52;;;;;;;6.73;80.83;99019.38;10330359;28;20625;-79
2024/03/03 06:46:46;;;;;;;17.08;11.13;;;;;;;6.98;80.39;99022.59;10340065;28;20108;-79
2024/03/03 06:51:49;;;;;;;21.13;12.00;;;;;;;7.13;78.77;99021.25;10338143;28;20122;-80
2024/03/03 06:56:54;;;;;;;22.38;11.95;;;;;;;7.35;78.01;99027.34;10336286;28;20049;-80
2024/03/03 07:01:57;;;;;;;7.53;4.53;;;;;;;7.75;77.24;99034.47;10320251;28;20426;-79
2024/03/03 07:07:00;;;;;;;17.15;8.23;;;;;;;8.37;75.25;99035.88;10342869;28;20136;-80
2024/03/03 07:12:07;;;;;;;13.40;7.80;;;;;;;8.89;72.58;99030.97;10344911;28;20648;-79
2024/03/03 07:17:10;;;;;;;14.77;7.40;;;;;;;9.36;69.77;99032.75;10338142;28;20089;-80
2024/03/03 07:22:13;;;;;;;12.65;7.63;;;;;;;9.68;69.05;99033.13;10346000;28;20702;-80
2024/03/03 07:27:18;;;;;;;22.05;9.15;;;;;;;9.98;65.62;99044.47;10343622;28;20046;-79
2024/03/03 07:32:21;;;;;;;16.25;10.00;;;;;;;10.23;64.48;99042.88;10344681;28;20049;-80
2024/03/03 07:37:24;;;;;;;17.15;10.57;;;;;;;10.45;63.36;99038.00;10348376;28;20251;-79
2024/03/03 07:42:29;;;;;;;18.20;9.93;;;;;;;10.67;62.41;99040.19;10344106;28;20052;-79
2024/03/03 07:47:32;;;;;;;15.80;11.15;;;;;;;10.65;61.83;99049.41;10343566;28;20050;-78
2024/03/03 07:52:36;;;;;;;18.15;10.95;;;;;;;10.81;61.88;99050.34;10381466;28;20057;-79
2024/03/03 07:57:41;;;;;;;16.05;10.98;;;;;;;11.12;60.84;99055.25;10331862;28;20859;-79
2024/03/03 08:02:44;;;;;;;18.35;11.50;;;;;;;11.25;60.88;99044.91;10344048;28;20045;-79
2024/03/03 08:07:48;;;;;;;16.33;10.13;;;;;;;11.66;59.50;99039.69;10327936;28;20050;-80
2024/03/03 08:12:52;;;;;;;16.25;11.18;;;;;;;11.69;59.62;99036.66;10327839;28;20049;-80
2024/03/03 08:17:56;;;;;;;21.48;12.85;;;;;;;11.94;58.89;99036.72;10319678;28;20042;-79
2024/03/03 08:29:36;;;;;;;18.00;11.20;;;;;;;12.57;57.11;99035.25;10339843;28;20046;-79
2024/03/03 08:34:40;;;;;;;17.67;11.07;;;;;;;12.60;55.55;99040.28;10341947;28;20056;-81
2024/03/03 08:39:43;;;;;;;18.02;11.07;;;;;;;12.83;54.61;99033.19;10340357;28;20046;-79
2024/03/03 08:44:47;;;;;;;17.48;10.93;;;;;;;12.66;55.15;99033.38;10342757;28;20488;-82
2024/03/03 08:49:50;;;;;;;19.30;12.02;;;;;;;12.66;54.80;99033.38;10313638;28;20050;-79
2024/03/03 08:54:54;;;;;;;21.73;12.23;;;;;;;12.98;55.12;99022.53;10302055;28;20435;-80
2024/03/03 08:59:59;;;;;;;15.52;11.45;;;;;;;13.18;54.13;99027.53;10302050;28;20172;-80
2024/03/03 09:05:02;;;;;;;17.20;11.43;;;;;;;13.30;53.62;99036.91;10301409;28;20058;-82
2024/03/03 09:10:06;;;;;;;16.45;11.63;;;;;;;13.45;53.02;99029.78;10300836;28;20145;-81
2024/03/03 09:15:11;;;;;;;16.05;11.35;;;;;;;13.71;52.85;99028.63;10286146;28;20062;-81
2024/03/03 09:20:14;;;;;;;17.40;11.30;;;;;;;13.46;52.75;99019.84;10296780;28;20798;-80
2024/03/03 09:25:18;;;;;;;15.43;11.50;;;;;;;13.58;53.10;99026.53;10306461;28;21214;-80
2024/03/03 09:30:22;;;;;;;19.33;11.90;;;;;;;14.12;51.64;99020.28;10307210;28;20065;-80
2024/03/03 09:35:25;;;;;;;21.92;13.68;;;;;;;14.30;50.75;99019.97;10306587;28;20054;-81
2024/03/03 09:40:36;;;;;;;15.50;11.43;;;;;;;14.49;51.15;99005.16;10314993;28;20569;-80
2024/03/03 09:45:45;;;;;;;20.25;12.75;;;;;;;14.64;50.02;98994.34;10312094;28;20050;-80
2024/03/03 09:50:52;;;;;;;17.10;11.75;;;;;;;14.68;51.00;98996.50;10318728;28;20065;-81
2024/03/03 09:55:58;;;;;;;16.98;11.98;;;;;;;15.57;49.63;98996.47;10304227;28;20110;-81
2024/03/03 10:01:03;;;;;;;17.55;12.07;;;;;;;15.87;48.73;98994.53;10332056;28;20041;-82
2024/03/03 10:06:14;;;;;;;21.23;13.18;;;;;;;15.62;47.59;99012.16;10320308;28;20076;-83
2024/03/03 10:11:37;;;;;;;16.90;12.33;;;;;;;15.82;48.29;99002.38;10317523;28;20038;-81
2024/03/03 10:16:51;;;;;;;18.48;12.82;;;;;;;16.28;47.42;98991.19;10333720;28;20050;-82
2024/03/03 10:21:57;;;;;;;19.10;13.02;;;;;;;16.38;46.92;98990.88;10305764;28;20473;-84
2024/03/03 10:27:02;;;;;;;19.25;12.73;;;;;;;17.11;44.63;98990.50;10313290;28;20050;-84
2024/03/03 10:32:21;;;;;;;16.70;12.88;;;;;;;17.44;44.77;98980.69;10340514;28;20051;-83
2024/03/03 10:37:34;;;;;;;16.70;11.90;;;;;;;18.18;43.79;98983.59;10323768;28;20460;-81
2024/03/03 10:42:38;;;;;;;18.52;11.98;;;;;;;18.02;42.91;98973.97;10326629;28;20049;-82
2024/03/03 10:47:49;;;;;;;16.38;12.63;;;;;;;17.57;43.88;98984.47;10306169;28;20058;-83
2024/03/03 10:53:03;;;;;;;18.45;12.23;;;;;;;16.76;45.36;98982.41;10301386;28;20069;-83
2024/03/03 10:58:09;;;;;;;16.85;11.77;;;;;;;15.74;47.27;98977.28;10303146;28;20049;-82
2024/03/03 11:03:21;;;;;;;15.98;12.10;;;;;;;15.60;48.69;98977.16;10299529;28;20413;-82
2024/03/03 11:08:33;;;;;;;21.35;12.65;;;;;;;15.11;49.30;98975.09;10296985;28;20057;-82
2024/03/03 11:13:50;;;;;;;20.63;13.02;;;;;;;15.35;49.85;98967.69;10302357;28;20106;-82
2024/03/03 11:18:57;;;;;;;17.05;11.70;;;;;;;15.79;48.75;98972.97;10287954;28;20038;-79
2024/03/03 11:24:06;;;;;;;14.02;6.90;;;;;;;16.04;47.72;98975.31;10279513;28;20050;-83
2024/03/03 11:29:12;;;;;;;17.25;11.57;;;;;;;16.07;46.92;98972.22;10282479;28;20573;-81
2024/03/03 11:34:24;;;;;;;18.98;11.63;;;;;;;16.01;47.82;98968.41;10269415;28;20298;-83
2024/03/03 11:39:35;;;;;;;18.65;12.10;;;;;;;15.98;47.87;98974.22;10264274;28;20551;-83
2024/03/03 11:44:53;;;;;;;18.00;12.55;;;;;;;16.30;47.39;98959.31;10295016;28;20060;-82
2024/03/03 11:49:58;;;;;;;22.90;12.07;;;;;;;18.83;43.84;98949.28;10300542;28;20048;-83
2024/03/03 11:55:08;;;;;;;17.20;11.95;;;;;;;20.16;40.94;98948.66;10352831;28;20049;-85
2024/03/03 12:00:16;;;;;;;17.75;12.10;;;;;;;19.85;40.62;98949.47;10341510;28;20053;-79
2024/03/03 12:05:21;;;;;;;16.02;11.60;;;;;;;19.63;40.90;98941.66;10307761;28;20062;-80
2024/03/03 12:10:26;;;;;;;17.20;11.98;;;;;;;19.57;41.85;98937.09;10277837;28;20069;-81
2024/03/03 12:15:30;;;;;;;18.55;11.25;;;;;;;19.28;42.51;98921.28;10291042;28;20043;-81
2024/03/03 12:20:36;;;;;;;19.35;11.70;;;;;;;18.87;42.40;98926.06;10295760;28;20405;-80
2024/03/03 12:25:40;;;;;;;23.23;12.38;;;;;;;18.90;43.33;98913.91;10296286;28;20046;-80
2024/03/03 12:30:44;;;;;;;18.88;12.35;;;;;;;19.02;43.17;98923.91;10296493;28;20045;-80
2024/03/03 12:35:52;;;;;;;17.92;12.75;;;;;;;20.58;41.38;98918.13;10296445;28;20057;-80
2024/03/03 12:40:55;;;;;;;20.13;11.88;;;;;;;21.56;39.42;98908.97;10292412;28;20049;-81
2024/03/03 12:45:59;;;;;;;15.95;11.70;;;;;;;22.48;37.31;98912.16;10295179;28;20057;-79
2024/03/03 12:51:04;;;;;;;17.80;11.75;;;;;;;22.60;36.29;98901.22;10295444;28;20109;-81
2024/03/03 12:56:19;;;;;;;19.38;12.70;;;;;;;23.10;35.64;98905.31;10296466;28;20053;-79
2024/03/03 13:01:22;;;;;;;16.58;11.35;;;;;;;23.53;35.40;98901.25;10298308;28;20054;-79
2024/03/03 13:06:27;;;;;;;16.23;11.88;;;;;;;24.94;33.58;98900.28;10300835;28;20042;-81
2024/03/03 13:11:31;;;;;;;15.93;11.23;;;;;;;26.76;31.47;98892.41;10300267;28;20057;-81
2024/03/03 13:16:35;;;;;;;14.27;11.25;;;;;;;27.04;30.48;98886.53;10304052;28;20052;-80
2024/03/03 13:21:39;;;;;;;15.23;11.48;;;;;;;27.72;29.68;98886.47;10295690;28;20054;-79
2024/03/03 13:26:43;;;;;;;14.00;11.15;;;;;;;27.94;29.28;98893.66;10287554;28;20065;-79
2024/03/03 13:31:46;;;;;;;15.70;10.57;;;;;;;28.00;29.04;98887.06;10290581;28;20101;-80
2024/03/03 13:36:50;;;;;;;14.80;11.18;;;;;;;28.13;28.82;98893.97;10295045;28;20054;-80
2024/03/03 13:41:53;;;;;;;13.70;10.80;;;;;;;27.96;29.58;98896.97;10298583;28;20047;-79
2024/03/03 13:46:56;;;;;;;14.57;11.90;;;;;;;27.69;28.96;98891.72;10296696;28;20046;-80
2024/03/03 13:52:01;;;;;;;15.73;11.88;;;;;;;27.67;29.73;98894.72;10297767;28;20057;-81
2024/03/03 13:57:05;;;;;;;15.68;12.20;;;;;;;27.00;30.28;98895.59;10291789;28;20141;-82
2024/03/03 14:02:08;;;;;;;17.50;13.00;;;;;;;26.99;30.34;98897.53;10296563;28;21550;-80
2024/03/03 14:07:13;;;;;;;18.55;12.50;;;;;;;26.91;30.45;98887.03;10303149;28;20062;-81
2024/03/03 14:12:16;;;;;;;18.15;12.85;;;;;;;26.68;30.17;98891.81;10298484;28;20050;-81
2024/03/03 14:17:19;;;;;;;18.38;12.07;;;;;;;25.89;30.92;98900.00;10304448;28;20545;-81
2024/03/03 14:22:24;;;;;;;14.23;12.15;;;;;;;25.12;32.02;98899.16;10296448;28;20050;-82
2024/03/03 14:27:28;;;;;;;16.17;12.25;;;;;;;25.34;31.88;98902.72;10307612;28;21192;-81
2024/03/03 14:32:31;;;;;;;17.33;11.82;;;;;;;24.85;32.48;98899.91;10337939;28;20061;-80
2024/03/03 14:37:36;;;;;;;15.43;11.60;;;;;;;24.07;33.47;98899.78;10334361;28;20444;-82
2024/03/03 14:42:39;;;;;;;16.40;12.65;;;;;;;23.98;33.96;98894.97;10307532;28;20109;-83
2024/03/03 14:47:42;;;;;;;16.20;12.32;;;;;;;22.08;35.79;98896.44;10305219;28;20054;-83
2024/03/03 14:52:47;;;;;;;15.82;12.18;;;;;;;21.58;37.36;98907.66;10298973;28;20050;-82
2024/03/03 14:57:50;;;;;;;17.58;12.23;;;;;;;20.71;38.45;98905.16;10294557;28;20046;-82
2024/03/03 15:02:53;;;;;;;17.40;12.65;;;;;;;20.26;39.08;98907.25;10297266;28;20050;-81
2024/03/03 15:07:57;;;;;;;20.35;13.50;;;;;;;20.05;39.78;98900.31;10314789;28;20058;-79
2024/03/03 15:13:05;;;;;;;21.48;14.10;;;;;;;19.64;40.66;98907.09;10298814;28;20054;-82
2024/03/03 15:18:08;;;;;;;22.02;15.02;;;;;;;19.05;41.81;98903.59;10296346;28;20144;-79
2024/03/03 15:23:12;;;;;;;27.05;17.80;;;;;;;18.62;42.58;98906.81;10288852;28;20054;-81
2024/03/03 15:28:16;;;;;;;25.95;17.77;;;;;;;18.58;42.83;98897.44;10288232;28;20085;-81
2024/03/03 15:33:19;;;;;;;28.55;18.67;;;;;;;18.44;43.44;98906.66;10291836;28;21728;-81
2024/03/03 15:38:24;;;;;;;32.67;20.48;;;;;;;18.35;43.55;98914.22;10295663;28;20050;-81
2024/03/03 15:43:27;;;;;;;28.73;20.88;;;;;;;18.53;43.43;98914.38;10297023;28;20050;-80
2024/03/03 15:48:30;;;;;;;34.58;21.85;;;;;;;18.29;43.70;98918.59;10298721;28;20061;-81
2024/03/03 15:53:34;;;;;;;34.20;21.67;;;;;;;17.99;44.44;98928.19;10290956;28;20132;-80
2024/03/03 15:58:37;;;;;;;35.28;22.92;;;;;;;17.17;45.89;98927.38;10300163;28;20725;-79
2024/03/03 16:03:40;;;;;;;36.17;22.80;;;;;;;16.66;47.00;98935.81;10309938;28;20974;-81
2024/03/03 16:08:45;;;;;;;39.70;23.75;;;;;;;16.21;48.41;98946.06;10293351;28;20042;-79
2024/03/03 16:13:48;;;;;;;35.95;22.83;;;;;;;16.23;48.76;98952.16;10298099;28;20047;-79
2024/03/03 16:18:51;;;;;;;36.88;24.75;;;;;;;15.92;49.66;98946.03;10290098;28;20414;-80
2024/03/03 16:23:56;;;;;;;42.50;26.73;;;;;;;15.56;51.01;98950.69;10285032;28;20133;-80
2024/03/03 16:29:00;;;;;;;42.38;27.30;;;;;;;15.48;51.82;98946.22;10294470;28;20105;-80
2024/03/03 16:34:04;;;;;;;44.33;26.60;;;;;;;15.15;52.71;98952.03;10299884;28;20048;-81
2024/03/03 16:39:09;;;;;;;39.55;25.63;;;;;;;14.81;53.98;98961.59;10301698;28;20115;-80
2024/03/03 16:44:12;;;;;;;38.72;26.00;;;;;;;14.70;54.31;98970.16;10301550;28;20058;-79
2024/03/03 16:49:15;;;;;;;38.13;24.90;;;;;;;14.58;54.63;98971.63;10313682;28;20054;-81
2024/03/03 16:54:21;;;;;;;43.80;25.42;;;;;;;14.13;56.28;98979.59;10313049;28;20054;-82
2024/03/03 16:59:24;;;;;;;43.35;26.17;;;;;;;13.79;57.65;98985.41;10309506;28;20054;-81
2024/03/03 17:04:28;;;;;;;41.03;25.30;;;;;;;13.44;58.98;98987.66;10302861;28;20129;-81
2024/03/03 17:09:32;;;;;;;42.92;25.83;;;;;;;13.27;59.89;98996.78;10308314;28;20109;-80
2024/03/03 17:15:41;;;;;;;39.00;24.70;;;;;;;13.11;60.68;99007.66;11521764;22;20049;-82
2024/03/03 17:20:44;;;;;;;40.25;25.33;;;;;;;12.93;61.77;99014.13;10385943;28;20069;-82
2024/03/03 17:25:48;;;;;;;41.55;25.13;;;;;;;12.78;62.29;99007.75;10397001;28;20049;-83
2024/03/03 17:30:51;;;;;;;38.33;24.60;;;;;;;12.66;62.67;99020.75;10421824;28;20105;-83
2024/03/03 17:35:54;;;;;;;40.70;25.42;;;;;;;12.51;63.67;99026.00;10427840;28;20044;-80
2024/03/03 17:40:59;;;;;;;47.70;28.80;;;;;;;12.32;64.33;99035.25;10413008;28;20413;-83
2024/03/03 17:46:02;;;;;;;44.25;28.10;;;;;;;12.25;65.13;99039.59;10390374;28;20072;-81
2024/03/03 17:51:06;;;;;;;46.08;28.95;;;;;;;12.12;65.60;99045.50;10391190;28;20073;-82
2024/03/03 17:56:10;;;;;;;48.85;30.02;;;;;;;12.07;66.18;99050.53;10379362;28;20114;-84
2024/03/03 18:01:13;;;;;;;50.03;29.35;;;;;;;12.07;66.51;99060.47;10404354;28;20076;-81
2024/03/03 18:06:18;;;;;;;46.25;29.98;;;;;;;12.02;66.82;99060.94;10400858;28;20041;-81
2024/03/03 18:11:22;;;;;;;52.15;30.38;;;;;;;11.95;66.91;99068.81;10372725;28;20066;-80
2024/03/03 18:16:25;;;;;;;47.35;29.80;;;;;;;11.82;67.50;99065.78;10368976;28;20169;-83
2024/03/03 18:21:30;;;;;;;46.35;30.13;;;;;;;11.78;67.94;99071.66;10371366;28;20053;-80
2024/03/03 18:26:35;;;;;;;51.40;31.33;;;;;;;11.68;68.27;99078.03;10401596;28;20042;-81
2024/03/03 18:31:38;;;;;;;53.35;29.73;;;;;;;11.58;68.83;99080.00;10318949;28;20794;-82
2024/03/03 18:36:41;;;;;;;50.50;29.83;;;;;;;11.56;69.29;99076.63;10313314;28;20142;-81
2024/03/03 18:41:51;;;;;;;50.50;30.23;;;;;;;11.52;69.37;99085.16;10320755;28;20117;-80
2024/03/03 18:46:54;;;;;;;50.75;31.55;;;;;;;11.38;69.57;99083.94;10331696;28;20053;-81
2024/03/03 18:51:57;;;;;;;46.42;30.08;;;;;;;11.20;70.44;99095.63;10328930;28;20046;-80
2024/03/03 18:57:03;;;;;;;49.83;30.15;;;;;;;11.15;70.46;99103.31;10347350;28;20053;-80
2024/03/03 19:02:06;;;;;;;44.95;30.13;;;;;;;10.91;71.92;99113.88;10354309;28;20037;-81
2024/03/03 19:07:10;;;;;;;47.58;30.17;;;;;;;10.88;72.06;99108.81;10334722;28;20121;-79
2024/03/03 19:12:15;;;;;;;50.58;29.55;;;;;;;10.82;72.12;99118.34;10327138;28;21101;-83
2024/03/03 19:17:18;;;;;;;53.00;31.80;;;;;;;10.76;72.30;99127.03;10337780;28;20050;-81
2024/03/03 19:22:22;;;;;;;55.53;32.80;;;;;;;10.73;72.74;99130.03;10321577;28;20096;-82
2024/03/03 19:27:29;;;;;;;55.13;31.20;;;;;;;10.64;73.31;99139.88;10328083;28;20045;-81
2024/03/03 19:32:32;;;;;;;50.30;30.38;;;;;;;10.33;75.33;99150.16;10319323;28;20054;-82
2024/03/03 19:37:35;;;;;;;54.20;30.60;;;;;;;10.20;76.41;99142.47;10335708;28;20057;-81
2024/03/03 19:42:39;;;;;;;53.97;31.17;;;;;;;10.25;76.32;99145.53;10316839;28;20131;-82
2024/03/03 19:47:44;;;;;;;52.35;31.02;;;;;;;10.21;76.50;99144.16;10300030;28;20497;-79
2024/03/03 19:52:47;;;;;;;54.25;31.50;;;;;;;10.11;77.42;99151.44;10307631;28;20050;-82
2024/03/03 19:57:51;;;;;;;54.20;31.92;;;;;;;9.93;78.59;99152.25;10303813;28;20097;-82
2024/03/03 20:02:54;;;;;;;56.10;32.60;;;;;;;9.91;78.54;99154.22;10308631;28;20056;-82
2024/03/03 20:07:57;;;;;;;54.45;31.90;;;;;;;9.96;78.58;99156.47;10336249;28;20054;-82
2024/03/03 20:13:08;;;;;;;54.72;31.52;;;;;;;9.99;78.26;99155.34;10318435;28;20598;-82
2024/03/03 20:18:11;;;;;;;51.50;29.92;;;;;;;9.95;78.25;99162.81;10304992;28;20054;-80
2024/03/03 20:23:14;;;;;;;57.08;32.38;;;;;;;9.94;78.45;99169.19;10324785;28;20054;-81
2024/03/03 20:28:18;;;;;;;53.60;31.48;;;;;;;9.96;78.39;99163.69;10319049;28;20042;-80
2024/03/03 20:33:22;;;;;;;54.88;31.35;;;;;;;9.94;77.97;99161.97;10344036;28;20054;-79
2024/03/03 20:38:26;;;;;;;53.65;31.23;;;;;;;9.90;77.83;99167.78;10334235;28;20050;-82
2024/03/03 20:43:30;;;;;;;53.38;29.98;;;;;;;9.85;78.22;99175.44;10315999;28;20054;-84
2024/03/03 20:48:33;;;;;;;51.35;29.88;;;;;;;9.69;78.93;99181.41;10323559;28;20816;-83
2024/03/03 20:53:36;;;;;;;54.70;31.10;;;;;;;9.64;79.57;99194.41;10300297;28;20050;-84
2024/03/03 20:58:41;;;;;;;55.38;32.25;;;;;;;9.46;80.82;99197.88;10342120;28;20109;-84
2024/03/03 21:03:44;;;;;;;52.80;31.20;;;;;;;9.39;80.88;99196.75;10327526;28;20082;-82
2024/03/03 21:08:47;;;;;;;52.35;30.45;;;;;;;9.48;80.26;99197.72;10297519;28;20058;-83
2024/03/03 21:13:52;;;;;;;54.70;32.22;;;;;;;9.40;79.98;99206.47;10310571;28;21584;-81
2024/03/03 21:18:54;;;;;;;56.58;32.33;;;;;;;9.26;80.46;99201.59;10301880;28;20046;-82
2024/03/03 21:23:58;;;;;;;54.67;31.38;;;;;;;9.20;81.07;99204.84;10292957;28;20061;-81
2024/03/03 21:29:03;;;;;;;57.65;32.35;;;;;;;9.18;81.49;99210.34;10295249;28;20080;-82
2024/03/03 21:34:07;;;;;;;63.00;34.35;;;;;;;9.12;82.20;99205.56;10310600;28;20046;-81
2024/03/03 21:39:10;;;;;;;53.33;31.70;;;;;;;9.17;82.02;99202.47;10345810;28;20172;-81
2024/03/03 21:44:15;;;;;;;53.55;31.35;;;;;;;9.15;81.70;99204.44;10352143;28;20050;-81
2024/03/03 21:49:20;;;;;;;54.13;32.17;;;;;;;9.05;81.45;99204.44;10358875;28;20053;-82
2024/03/03 21:54:23;;;;;;;55.42;31.67;;;;;;;9.02;81.71;99200.25;10357168;28;20071;-82
2024/03/03 21:59:27;;;;;;;56.22;31.90;;;;;;;9.03;81.32;99204.59;10351180;28;20612;-82
2024/03/03 22:04:30;;;;;;;56.53;31.92;;;;;;;9.04;81.90;99210.78;10329938;28;20049;-84
2024/03/03 22:09:34;;;;;;;56.78;32.83;;;;;;;9.00;81.24;99217.44;10350327;28;20067;-83
2024/03/03 22:14:39;;;;;;;56.47;32.55;;;;;;;8.97;81.07;99221.25;10340147;28;20605;-82
2024/03/03 22:19:42;;;;;;;54.17;31.73;;;;;;;8.87;81.13;99222.25;10347105;28;20053;-82
2024/03/03 22:24:45;;;;;;;56.67;32.75;;;;;;;8.71;81.60;99229.00;10361945;28;20050;-82
2024/03/03 22:29:49;;;;;;;54.15;31.92;;;;;;;8.64;81.57;99233.22;10354677;28;20527;-84
2024/03/03 22:34:52;;;;;;;54.67;31.58;;;;;;;8.51;82.30;99230.81;10311141;28;20050;-83
2024/03/03 22:39:55;;;;;;;51.78;31.15;;;;;;;8.54;83.03;99227.03;10301514;28;20073;-82
2024/03/03 22:45:00;;;;;;;55.20;32.53;;;;;;;8.62;82.72;99232.53;10309684;28;20046;-82
2024/03/03 22:50:04;;;;;;;55.65;33.50;;;;;;;8.63;82.11;99233.34;10307456;28;20050;-81
2024/03/03 22:55:07;;;;;;;58.15;33.47;;;;;;;8.61;81.75;99230.81;10352564;28;20053;-81
2024/03/03 23:00:13;;;;;;;65.90;34.53;;;;;;;8.50;82.28;99237.16;10333553;28;20058;-81
2024/03/03 23:05:19;;;;;;;55.67;31.52;;;;;;;8.37;81.85;99236.53;10321492;28;20050;-80
2024/03/03 23:10:25;;;;;;;56.38;33.25;;;;;;;8.30;81.72;99249.59;10293019;28;20050;-81
2024/03/03 23:15:32;;;;;;;58.78;33.30;;;;;;;8.22;81.98;99256.63;10283116;28;20116;-82
2024/03/03 23:20:35;;;;;;;60.83;32.75;;;;;;;8.18;82.58;99253.41;10306657;28;20050;-82